Terminal Aerodrome Forecast
Issued by NWS

Home | Current Version | Previous Version | Text Only | Print | Product List | Glossary On
Versions: 1 2 3 4 5 6 7 8 9 10 11 12 13 14 15 16 17
000
FTUS46 KSTO 270500
TAFSCK
TAF
KSCK 270527Z 2706/2806 VRB03KT 5SM HZ SCT250
     FM270900 00000KT 2SM BR BKN250
      TEMPO 2712/2716 1/2SM FG VV001
     FM271900 VRB03KT 5SM HZ BKN250
     FM272200 27004KT P6SM SCT250
     FM280200 27004KT 5SM HZ SCT250=

USA.gov is the U.S. government's official web portal to all federal, state and local government web resources and services.